Terminal Aerodrome Forecast
Issued by NWS

Home | Current Version | Previous Version | Text Only | Print | Product List | Glossary On
Versions: 1 2 3 4 5 6 7 8 9 10 11 12 13 14 15 16 17 18 19 20 21 22
000
FTUS41 KPBZ 272300
TAFFKL
TAF
KFKL 272323Z 2800/2824 33008KT P6SM SCT017 BKN024
      TEMPO 2800/2802 3SM -SHSN BKN017
     FM280200 32010KT P6SM BKN015
     FM281800 30008KT P6SM SCT025
      AMD LTD TO CLD VIS AND WIND=

USA.gov is the U.S. government's official web portal to all federal, state and local government web resources and services.